createdAt,value
2023-04-11T00:00:54.019Z,478.3077
2023-04-11T00:01:55.684Z,477.9231
2023-04-11T00:02:57.621Z,476.7692
2023-04-11T00:03:59.146Z,476.8462
2023-04-11T00:05:00.739Z,475.2308
2023-04-11T00:06:02.279Z,473.6923
2023-04-11T00:07:03.902Z,474.1538
2023-04-11T00:08:05.642Z,473.5385
2023-04-11T00:09:07.216Z,467.9231
2023-04-11T00:10:08.871Z,467.2308
2023-04-11T00:11:10.649Z,467.6154
2023-04-11T00:12:12.180Z,462.0769
2023-04-11T00:13:13.935Z,454.6154
2023-04-11T00:14:16.097Z,449.8462
2023-04-11T00:15:17.141Z,451.1538
2023-04-11T00:16:18.851Z,459.6154
2023-04-11T00:17:20.471Z,462.4615
2023-04-11T00:18:22.165Z,470.3077
2023-04-11T00:19:23.770Z,471.0769
2023-04-11T00:20:25.449Z,478.0000
2023-04-11T00:21:27.126Z,480.7692
2023-04-11T00:22:28.744Z,480.4615
2023-04-11T00:23:31.292Z,482.0000
2023-04-11T00:24:32.073Z,477.7692
2023-04-11T00:25:33.796Z,476.3077
2023-04-11T00:26:35.370Z,478.6154
2023-04-11T00:27:37.019Z,470.9231
2023-04-11T00:28:38.766Z,472.2308
2023-04-11T00:29:40.417Z,472.6154
2023-04-11T00:30:42.031Z,472.1538
2023-04-11T00:31:43.742Z,477.9231
2023-04-11T00:32:45.366Z,473.0769
2023-04-11T00:33:47.058Z,465.2308
2023-04-11T00:34:48.714Z,459.5385
2023-04-11T00:35:50.364Z,455.3846
2023-04-11T00:36:52.034Z,452.5385
2023-04-11T00:37:53.576Z,455.5385
2023-04-11T00:38:56.001Z,455.2308
2023-04-11T00:39:57.013Z,461.8462
2023-04-11T00:40:58.625Z,465.8462
2023-04-11T00:42:00.321Z,472.4615
2023-04-11T00:43:02.045Z,473.3077
2023-04-11T00:44:03.638Z,472.1538
2023-04-11T00:45:05.264Z,472.5385
2023-04-11T00:46:07.030Z,472.6154
2023-04-11T00:47:08.675Z,476.3846
2023-04-11T00:48:10.227Z,474.5385
2023-04-11T00:49:11.904Z,473.3846
2023-04-11T00:50:13.558Z,478.7692
2023-04-11T00:51:15.291Z,482.8462
2023-04-11T00:52:16.857Z,482.6154
2023-04-11T00:53:18.548Z,477.0769
2023-04-11T00:54:20.213Z,472.3077
2023-04-11T00:55:21.800Z,467.6923
2023-04-11T00:56:23.432Z,459.4615
2023-04-11T00:57:25.155Z,451.0769
2023-04-11T00:58:26.790Z,449.8462
2023-04-11T00:59:28.395Z,450.3846
2023-04-11T01:00:30.176Z,456.7692
2023-04-11T01:01:32.801Z,463.7692
2023-04-11T01:02:33.446Z,468.3846
2023-04-11T01:03:35.160Z,472.1538
2023-04-11T01:04:36.770Z,469.0000
2023-04-11T01:05:38.401Z,467.6154
2023-04-11T01:06:40.032Z,466.4615
2023-04-11T01:07:41.678Z,469.0769
2023-04-11T01:08:43.304Z,468.6154
2023-04-11T01:09:45.006Z,469.7692
2023-04-11T01:10:46.634Z,469.4615
2023-04-11T01:11:48.266Z,469.0769
2023-04-11T01:12:49.906Z,470.9231
2023-04-11T01:13:51.592Z,469.4615
2023-04-11T01:14:53.267Z,471.9231
2023-04-11T01:15:54.927Z,469.9231
2023-04-11T01:16:56.699Z,456.6154
2023-04-11T01:17:58.258Z,451.5385
2023-04-11T01:18:59.901Z,447.9231
2023-04-11T01:20:01.766Z,451.0769
2023-04-11T01:21:03.177Z,455.6923
2023-04-11T01:22:04.755Z,459.6154
2023-04-11T01:23:05.306Z,461.6667
2023-04-11T01:24:08.139Z,463.5714
2023-04-11T01:25:10.247Z,466.7692
2023-04-11T01:26:11.518Z,469.3846
2023-04-11T01:27:13.170Z,471.0000
2023-04-11T01:28:14.891Z,472.0769
2023-04-11T01:29:16.409Z,471.3077
2023-04-11T01:30:18.237Z,472.5385
2023-04-11T01:31:19.728Z,476.5385
2023-04-11T01:32:21.436Z,474.9231
2023-04-11T01:33:23.063Z,473.5385
2023-04-11T01:34:24.755Z,475.4615
2023-04-11T01:35:27.212Z,479.6923
2023-04-11T01:36:28.023Z,481.4615
2023-04-11T01:37:29.590Z,474.7692
2023-04-11T01:38:31.290Z,465.6923
2023-04-11T01:39:33.011Z,462.3077
2023-04-11T01:40:34.649Z,452.2308
2023-04-11T01:41:36.251Z,446.3077
2023-04-11T01:42:38.001Z,454.6923
2023-04-11T01:43:39.529Z,457.9231
2023-04-11T01:44:41.200Z,458.3846
2023-04-11T01:45:42.881Z,468.6154
2023-04-11T01:46:44.561Z,470.3846
2023-04-11T01:47:47.046Z,468.5385
2023-04-11T01:48:47.945Z,467.2308
2023-04-11T01:49:49.485Z,469.2308
2023-04-11T01:50:51.152Z,468.7692
2023-04-11T01:51:52.795Z,470.0000
2023-04-11T01:52:54.524Z,472.5385
2023-04-11T01:53:56.123Z,470.3846
2023-04-11T01:54:58.291Z,470.0769
2023-04-11T01:55:59.416Z,474.6923
2023-04-11T01:57:01.016Z,475.0000
2023-04-11T01:58:02.737Z,477.0769
2023-04-11T01:59:04.393Z,473.2308
2023-04-11T02:00:06.706Z,465.6154
2023-04-11T02:01:07.859Z,464.0000
2023-04-11T02:02:09.471Z,447.2308
2023-04-11T02:03:11.121Z,441.6154
2023-04-11T02:04:12.825Z,452.0000
2023-04-11T02:05:14.344Z,459.4615
2023-04-11T02:06:16.598Z,461.6154
2023-04-11T02:07:17.658Z,467.6923
2023-04-11T02:08:19.218Z,473.0000
2023-04-11T02:09:20.892Z,479.1538
2023-04-11T02:10:22.533Z,479.0000
2023-04-11T02:11:24.322Z,471.3077
2023-04-11T02:12:25.870Z,470.3846
2023-04-11T02:13:27.416Z,472.7692
2023-04-11T02:14:29.133Z,474.0000
2023-04-11T02:15:30.934Z,472.3077
2023-04-11T02:16:32.536Z,469.6923
2023-04-11T02:17:34.226Z,471.9231
2023-04-11T02:18:35.728Z,473.8462
2023-04-11T02:19:37.457Z,473.0769
2023-04-11T02:20:39.140Z,470.2308
2023-04-11T02:21:40.790Z,460.8462
2023-04-11T02:22:42.458Z,458.6154
2023-04-11T02:23:44.147Z,453.6923
2023-04-11T02:24:45.741Z,449.4615
2023-04-11T02:25:48.224Z,446.5385
2023-04-11T02:26:49.148Z,459.4615
2023-04-11T02:27:50.803Z,466.8462
2023-04-11T02:28:52.462Z,472.6154
2023-04-11T02:29:54.031Z,479.0000
2023-04-11T02:30:55.732Z,478.2308
2023-04-11T02:31:57.374Z,473.6154
2023-04-11T02:32:59.028Z,471.7692
2023-04-11T02:34:00.635Z,469.4615
2023-04-11T02:35:02.320Z,470.8462
2023-04-11T02:36:04.110Z,471.6923
2023-04-11T02:37:05.747Z,475.1538
2023-04-11T02:38:07.189Z,475.5385
2023-04-11T02:39:08.912Z,477.9231
2023-04-11T02:40:10.495Z,478.6154
2023-04-11T02:41:12.190Z,480.1538
2023-04-11T02:42:14.583Z,476.1538
2023-04-11T02:43:15.601Z,471.4615
2023-04-11T02:44:17.207Z,461.9231
2023-04-11T02:45:18.881Z,451.3077
2023-04-11T02:46:20.443Z,456.3077
2023-04-11T02:47:22.362Z,460.0000
2023-04-11T02:48:23.861Z,469.1538
2023-04-11T02:49:25.428Z,471.4615
2023-04-11T02:50:27.124Z,478.0769
2023-04-11T02:51:28.816Z,478.9231
2023-04-11T02:52:30.444Z,479.5385
2023-04-11T02:53:32.075Z,481.0000
2023-04-11T02:54:33.806Z,480.5385
2023-04-11T02:55:35.422Z,479.1538
2023-04-11T02:56:37.019Z,489.7692
2023-04-11T02:57:38.648Z,495.5385
2023-04-11T02:58:40.324Z,499.1538
2023-04-11T02:59:41.942Z,503.0769
2023-04-11T03:00:43.644Z,501.2308
2023-04-11T03:01:45.351Z,501.5385
2023-04-11T03:02:46.933Z,505.2308
2023-04-11T03:03:48.595Z,498.6923
2023-04-11T03:04:50.207Z,490.6923
2023-04-11T03:05:51.785Z,489.5385
2023-04-11T03:06:53.438Z,478.0000
2023-04-11T03:07:55.237Z,475.1538
2023-04-11T03:08:57.489Z,477.9231
2023-04-11T03:09:58.526Z,487.1538
2023-04-11T03:11:00.082Z,492.3077
2023-04-11T03:12:01.726Z,493.9231
2023-04-11T03:13:04.312Z,496.9231
2023-04-11T03:14:05.070Z,496.9231
2023-04-11T03:15:06.738Z,507.7692
2023-04-11T03:16:08.435Z,504.4615
2023-04-11T03:17:09.986Z,490.9231
2023-04-11T03:18:11.698Z,497.4615
2023-04-11T03:19:13.423Z,496.5385
2023-04-11T03:20:14.993Z,495.2308
2023-04-11T03:21:16.620Z,495.1538
2023-04-11T03:22:18.256Z,497.0000
2023-04-11T03:23:19.963Z,497.6154
2023-04-11T03:24:21.591Z,496.0769
2023-04-11T03:25:23.335Z,493.3077
2023-04-11T03:26:24.942Z,492.6923
2023-04-11T03:27:26.547Z,480.8462
2023-04-11T03:28:29.236Z,468.7692
2023-04-11T03:29:29.905Z,471.5385
2023-04-11T03:30:31.512Z,474.9231
2023-04-11T03:31:33.195Z,477.9231
2023-04-11T03:32:34.848Z,474.6923
2023-04-11T03:33:37.387Z,493.7692
2023-04-11T03:34:38.198Z,498.7692
2023-04-11T03:35:39.887Z,497.1538
2023-04-11T03:36:41.491Z,501.8462
2023-04-11T03:37:43.076Z,504.9231
2023-04-11T03:38:44.699Z,508.7692
2023-04-11T03:39:46.477Z,502.3077
2023-04-11T03:40:48.070Z,498.7692
2023-04-11T03:41:49.738Z,494.6923
2023-04-11T03:42:51.368Z,498.0769
2023-04-11T03:43:53.013Z,498.3846
2023-04-11T03:44:54.740Z,497.6154
2023-04-11T03:45:56.380Z,497.2308
2023-04-11T03:46:58.067Z,497.8462
2023-04-11T03:47:59.660Z,497.0769
2023-04-11T03:49:01.270Z,485.1538
2023-04-11T03:50:03.291Z,477.8462
2023-04-11T03:51:04.602Z,475.8462
2023-04-11T03:52:06.216Z,480.3077
2023-04-11T03:53:07.854Z,485.1538
2023-04-11T03:54:09.514Z,479.2308
2023-04-11T03:55:11.186Z,488.2308
2023-04-11T03:56:12.822Z,499.9231
2023-04-11T03:57:14.587Z,501.6154
2023-04-11T03:58:16.168Z,500.0000
2023-04-11T03:59:17.816Z,500.3846
2023-04-11T04:00:20.139Z,502.0769
2023-04-11T04:01:21.141Z,501.7692
2023-04-11T04:02:22.957Z,505.0769
2023-04-11T04:03:24.680Z,504.6923
2023-04-11T04:04:26.262Z,497.3846
2023-04-11T04:05:27.752Z,507.6154
2023-04-11T04:06:29.370Z,508.6154
2023-04-11T04:07:31.077Z,507.8462
2023-04-11T04:08:32.690Z,509.0000
2023-04-11T04:09:34.431Z,500.3846
2023-04-11T04:10:35.973Z,489.3846
2023-04-11T04:11:37.665Z,481.9231
2023-04-11T04:12:39.362Z,477.6923
2023-04-11T04:13:40.979Z,466.2308
2023-04-11T04:14:42.662Z,480.0000
2023-04-11T04:15:44.300Z,493.6923
2023-04-11T04:16:46.060Z,498.9231
2023-04-11T04:17:47.618Z,503.8462
2023-04-11T04:18:49.249Z,505.5385
2023-04-11T04:19:50.903Z,505.4615
2023-04-11T04:20:52.533Z,510.8462
2023-04-11T04:21:54.210Z,506.6923
2023-04-11T04:22:55.830Z,507.7692
2023-04-11T04:23:57.622Z,508.0000
2023-04-11T04:24:59.445Z,505.3846
2023-04-11T04:26:00.831Z,508.1538
2023-04-11T04:27:02.528Z,502.1538
2023-04-11T04:28:04.081Z,504.1538
2023-04-11T04:29:05.756Z,500.9231
2023-04-11T04:30:07.462Z,500.3077
2023-04-11T04:31:09.078Z,497.3846
2023-04-11T04:32:10.883Z,498.6923
2023-04-11T04:33:12.535Z,494.3077
2023-04-11T04:34:14.007Z,488.0000
2023-04-11T04:35:15.672Z,488.8462
2023-04-11T04:36:17.225Z,487.5385
2023-04-11T04:37:18.940Z,493.9231
2023-04-11T04:38:20.556Z,493.4615
2023-04-11T04:39:22.208Z,503.6154
2023-04-11T04:40:23.913Z,509.6923
2023-04-11T04:41:25.517Z,506.6923
2023-04-11T04:42:27.172Z,503.0769
2023-04-11T04:43:28.925Z,507.4615
2023-04-11T04:44:30.529Z,506.9231
2023-04-11T04:45:32.374Z,504.6923
2023-04-11T04:46:33.828Z,509.0769
2023-04-11T04:47:35.529Z,504.1538
2023-04-11T04:48:37.124Z,503.1538
2023-04-11T04:49:38.762Z,512.6923
2023-04-11T04:50:40.474Z,506.3077
2023-04-11T04:51:42.072Z,496.3846
2023-04-11T04:52:43.666Z,495.0000
2023-04-11T04:53:45.430Z,491.5385
2023-04-11T04:54:47.078Z,487.6154
2023-04-11T04:55:48.736Z,490.3077
2023-04-11T04:56:50.329Z,494.1538
2023-04-11T04:57:52.051Z,494.0000
2023-04-11T04:58:53.575Z,493.1538
2023-04-11T04:59:55.289Z,496.3077
2023-04-11T05:00:56.952Z,499.8462
2023-04-11T05:01:58.639Z,503.3077
2023-04-11T05:03:00.398Z,505.6923
2023-04-11T05:04:02.489Z,505.1538
2023-04-11T05:05:03.623Z,506.0000
2023-04-11T05:06:05.257Z,502.7692
2023-04-11T05:07:06.873Z,502.6154
2023-04-11T05:08:08.506Z,506.1538
2023-04-11T05:09:10.153Z,511.6154
2023-04-11T05:10:11.832Z,506.7692
2023-04-11T05:11:13.798Z,504.6923
2023-04-11T05:12:15.064Z,509.9231
2023-04-11T05:13:16.704Z,509.3077
2023-04-11T05:14:18.388Z,506.1538
2023-04-11T05:15:20.416Z,508.3846
2023-04-11T05:16:21.817Z,505.8462
2023-04-11T05:17:25.182Z,507.7692
2023-04-11T05:18:25.046Z,507.5385
2023-04-11T05:19:26.681Z,510.0769
2023-04-11T05:20:29.250Z,514.2308
2023-04-11T05:21:30.835Z,513.2308
2023-04-11T05:22:31.625Z,519.5385
2023-04-11T05:23:33.372Z,523.5385
2023-04-11T05:24:34.987Z,523.3846
2023-04-11T05:25:36.754Z,523.4615
2023-04-11T05:26:38.966Z,525.7692
2023-04-11T05:27:39.994Z,521.9231
2023-04-11T05:28:41.782Z,515.6154
2023-04-11T05:29:43.345Z,519.6154
2023-04-11T05:30:44.968Z,520.1539
2023-04-11T05:31:46.924Z,518.8461
2023-04-11T05:32:48.345Z,522.1539
2023-04-11T05:33:51.017Z,521.1539
2023-04-11T05:34:51.635Z,516.6923
2023-04-11T05:35:53.324Z,513.1539
2023-04-11T05:36:54.875Z,516.3846
2023-04-11T05:37:56.742Z,512.6154
2023-04-11T05:38:58.260Z,505.5385
2023-04-11T05:39:59.820Z,497.3846
2023-04-11T05:41:01.453Z,500.3077
2023-04-11T05:42:03.151Z,498.7692
2023-04-11T05:43:04.999Z,506.9231
2023-04-11T05:44:06.390Z,514.0000
2023-04-11T05:45:08.089Z,520.4615
2023-04-11T05:46:09.740Z,523.3846
2023-04-11T05:47:11.595Z,523.4615
2023-04-11T05:48:14.227Z,524.3077
2023-04-11T05:49:14.788Z,522.9167
2023-04-11T05:50:16.483Z,520.7692
2023-04-11T05:51:18.194Z,517.6154
2023-04-11T05:52:19.930Z,519.4615
2023-04-11T05:53:21.376Z,515.9231
2023-04-11T05:54:23.044Z,516.9231
2023-04-11T05:55:24.719Z,522.0000
2023-04-11T05:56:26.352Z,522.4615
2023-04-11T05:57:28.337Z,520.7692
2023-04-11T05:58:29.673Z,516.8461
2023-04-11T05:59:31.364Z,508.0769
2023-04-11T06:00:32.958Z,502.2308
2023-04-11T06:01:34.520Z,496.6923
2023-04-11T06:02:36.295Z,503.9231
2023-04-11T06:03:37.912Z,502.0769
2023-04-11T06:04:40.117Z,505.7692
2023-04-11T06:05:41.133Z,512.1539
2023-04-11T06:06:42.752Z,512.9231
2023-04-11T06:07:44.443Z,515.0769
2023-04-11T06:08:46.159Z,512.6923
2023-04-11T06:09:47.834Z,512.1539
2023-04-11T06:10:49.502Z,517.7692
2023-04-11T06:11:51.124Z,516.0769
2023-04-11T06:12:52.780Z,512.0769
2023-04-11T06:13:54.545Z,513.5385
2023-04-11T06:14:56.019Z,525.3077
2023-04-11T06:15:57.873Z,526.6923
2023-04-11T06:16:59.391Z,526.3077
2023-04-11T06:18:01.196Z,517.5385
2023-04-11T06:19:02.649Z,511.0000
2023-04-11T06:20:05.919Z,503.0769
2023-04-11T06:21:06.125Z,501.3846
2023-04-11T06:22:07.758Z,491.9231
2023-04-11T06:23:09.968Z,495.7692
2023-04-11T06:24:10.915Z,501.4615
2023-04-11T06:25:12.602Z,503.0000
2023-04-11T06:26:14.234Z,502.0769
2023-04-11T06:27:16.844Z,510.0000
2023-04-11T06:28:17.642Z,513.9231
2023-04-11T06:29:19.945Z,513.1539
2023-04-11T06:30:21.051Z,517.5385
2023-04-11T06:31:23.569Z,516.1539
2023-04-11T06:32:24.633Z,515.3077
2023-04-11T06:33:25.755Z,519.3846
2023-04-11T06:34:27.677Z,517.8461
2023-04-11T06:35:29.166Z,517.8461
2023-04-11T06:36:30.787Z,513.6923
2023-04-11T06:37:32.512Z,514.0000
2023-04-11T06:38:34.586Z,516.7692
2023-04-11T06:39:35.825Z,519.2308
2023-04-11T06:40:37.452Z,519.0769
2023-04-11T06:41:39.026Z,515.0769
2023-04-11T06:42:41.050Z,502.3846
2023-04-11T06:43:42.539Z,497.8462
2023-04-11T06:44:44.373Z,495.3077
2023-04-11T06:45:45.652Z,502.0000
2023-04-11T06:46:47.488Z,503.7692
2023-04-11T06:47:49.075Z,507.9231
2023-04-11T06:48:50.634Z,511.0000
2023-04-11T06:49:52.240Z,516.7692
2023-04-11T06:50:55.046Z,518.8461
2023-04-11T06:51:55.548Z,518.7692
2023-04-11T06:52:57.299Z,515.6923
2023-04-11T06:53:58.888Z,515.6923
2023-04-11T06:55:00.564Z,514.9231
2023-04-11T06:56:02.164Z,515.6923
2023-04-11T06:57:03.881Z,516.4615
2023-04-11T06:58:05.355Z,515.3846
2023-04-11T06:59:07.301Z,519.6923
2023-04-11T07:00:08.727Z,521.3846
2023-04-11T07:01:10.373Z,518.7692
2023-04-11T07:02:12.112Z,516.9231
2023-04-11T07:03:13.797Z,515.2308
2023-04-11T07:04:15.516Z,513.6154
2023-04-11T07:05:16.981Z,504.5385
2023-04-11T07:06:18.696Z,500.0769
2023-04-11T07:07:20.318Z,498.7692
2023-04-11T07:08:21.894Z,504.6154
2023-04-11T07:09:23.592Z,502.0769
2023-04-11T07:10:25.258Z,506.6154
2023-04-11T07:11:26.950Z,511.5385
2023-04-11T07:12:28.458Z,516.7692
2023-04-11T07:13:30.904Z,519.5385
2023-04-11T07:14:31.904Z,521.8461
2023-04-11T07:15:33.463Z,522.5385
2023-04-11T07:16:35.170Z,517.1539
2023-04-11T07:17:36.967Z,519.7692
2023-04-11T07:18:38.400Z,520.4615
2023-04-11T07:19:40.103Z,522.0769
2023-04-11T07:20:41.725Z,518.1539
2023-04-11T07:21:43.405Z,516.6154
2023-04-11T07:22:45.032Z,516.1539
2023-04-11T07:23:46.661Z,517.4615
2023-04-11T07:24:48.340Z,518.3077
2023-04-11T07:25:49.953Z,510.9231
2023-04-11T07:26:51.798Z,505.5385
2023-04-11T07:27:53.334Z,501.1538
2023-04-11T07:28:54.972Z,500.2308
2023-04-11T07:29:56.830Z,503.5385
2023-04-11T07:30:58.244Z,507.4615
2023-04-11T07:31:59.863Z,504.6154
2023-04-11T07:33:01.505Z,507.6154
2023-04-11T07:34:03.135Z,514.3077
2023-04-11T07:35:05.050Z,511.5385
2023-04-11T07:36:06.499Z,515.8461
2023-04-11T07:37:08.081Z,522.1539
2023-04-11T07:38:09.790Z,522.3846
2023-04-11T07:39:11.460Z,523.2308
2023-04-11T07:40:13.522Z,523.6923
2023-04-11T07:41:14.694Z,519.7692
2023-04-11T07:42:16.311Z,519.2308
2023-04-11T07:43:18.116Z,520.0000
2023-04-11T07:44:19.825Z,518.1539
2023-04-11T07:45:21.365Z,516.6923
2023-04-11T07:46:22.949Z,517.9231
2023-04-11T07:47:24.603Z,511.4615
2023-04-11T07:48:26.344Z,507.5385
2023-04-11T07:49:27.948Z,497.4615
2023-04-11T07:50:29.768Z,500.3846
2023-04-11T07:51:31.154Z,503.0769
2023-04-11T07:52:32.911Z,504.8462
2023-04-11T07:53:34.504Z,506.6923
2023-04-11T07:54:36.101Z,517.3077
2023-04-11T07:55:37.837Z,523.4615
2023-04-11T07:56:40.405Z,522.8461
2023-04-11T07:57:41.087Z,521.6923
2023-04-11T07:58:42.772Z,519.0769
2023-04-11T07:59:44.572Z,517.0000
2023-04-11T08:00:45.991Z,514.7692
2023-04-11T08:01:47.775Z,518.3846
2023-04-11T08:02:50.356Z,519.6923
2023-04-11T08:03:51.076Z,518.9231
2023-04-11T08:04:52.754Z,523.2308
2023-04-11T08:05:54.239Z,521.4615
2023-04-11T08:06:55.896Z,521.1539
2023-04-11T08:07:57.568Z,520.6923
2023-04-11T08:08:59.285Z,508.3077
2023-04-11T08:10:00.848Z,503.7692
2023-04-11T08:11:02.506Z,499.6154
2023-04-11T08:12:04.200Z,499.8462
2023-04-11T08:13:05.856Z,502.2308
2023-04-11T08:14:07.416Z,504.5385
2023-04-11T08:15:09.167Z,505.0000
2023-04-11T08:16:10.837Z,509.6154
2023-04-11T08:17:25.143Z,514.0769
2023-04-11T08:18:14.068Z,510.8333
2023-04-11T08:19:15.698Z,514.3077
2023-04-11T08:20:17.416Z,514.9231
2023-04-11T08:21:19.045Z,513.5385
2023-04-11T08:22:21.022Z,517.3077
2023-04-11T08:23:22.384Z,519.2308
2023-04-11T08:24:23.962Z,515.6154
2023-04-11T08:25:25.630Z,513.9231
2023-04-11T08:26:27.957Z,510.8462
2023-04-11T08:27:28.912Z,515.1539
2023-04-11T08:28:30.714Z,513.4615
2023-04-11T08:29:32.436Z,510.4615
2023-04-11T08:30:33.868Z,509.4615
2023-04-11T08:31:35.456Z,505.8462
2023-04-11T08:32:37.420Z,497.1538
2023-04-11T08:33:38.713Z,490.0769
2023-04-11T08:34:40.389Z,499.3077
2023-04-11T08:35:42.112Z,505.0000
2023-04-11T08:36:43.712Z,509.1538
2023-04-11T08:37:45.938Z,511.0000
2023-04-11T08:38:47.023Z,512.5385
2023-04-11T08:39:48.709Z,516.6923
2023-04-11T08:40:50.532Z,519.4615
2023-04-11T08:41:52.201Z,518.3846
2023-04-11T08:42:53.633Z,518.5385
2023-04-11T08:43:55.572Z,520.0769
2023-04-11T08:44:56.925Z,519.6923
2023-04-11T08:45:58.569Z,518.0000
2023-04-11T08:47:00.283Z,518.0000
2023-04-11T08:48:01.907Z,518.0769
2023-04-11T08:49:03.703Z,515.0769
2023-04-11T08:50:05.091Z,514.4615
2023-04-11T08:51:06.807Z,514.7692
2023-04-11T08:52:08.807Z,515.5385
2023-04-11T08:53:10.055Z,506.6923
2023-04-11T08:54:11.726Z,500.0000
2023-04-11T08:55:13.413Z,491.3846
2023-04-11T08:56:15.023Z,490.6154
2023-04-11T08:57:16.722Z,492.5385
2023-04-11T08:58:18.414Z,496.4615
2023-04-11T08:59:20.052Z,503.3077
2023-04-11T09:00:21.613Z,511.6923
2023-04-11T09:01:23.355Z,512.0769
2023-04-11T09:02:25.109Z,511.8462
2023-04-11T09:03:26.605Z,507.5385
2023-04-11T09:04:29.073Z,514.6923
2023-04-11T09:05:30.202Z,513.6154
2023-04-11T09:06:31.598Z,510.1538
2023-04-11T09:07:33.216Z,506.0000
2023-04-11T09:08:34.830Z,506.5385
2023-04-11T09:09:36.471Z,507.4615
2023-04-11T09:10:38.089Z,507.5385
2023-04-11T09:11:39.764Z,511.4615
2023-04-11T09:12:41.408Z,512.8461
2023-04-11T09:13:43.817Z,506.4615
2023-04-11T09:14:44.694Z,494.5385
2023-04-11T09:15:46.451Z,492.4615
2023-04-11T09:16:47.898Z,488.4615
2023-04-11T09:17:49.546Z,490.3846
2023-04-11T09:18:51.209Z,485.5385
2023-04-11T09:19:52.872Z,486.0769
2023-04-11T09:20:54.584Z,496.3077
2023-04-11T09:21:56.205Z,499.3846
2023-04-11T09:22:57.821Z,504.0769
2023-04-11T09:23:59.427Z,503.4615
2023-04-11T09:25:01.146Z,503.9231
2023-04-11T09:26:02.840Z,502.9231
2023-04-11T09:27:04.454Z,502.3846
2023-04-11T09:28:06.137Z,502.6923
2023-04-11T09:29:07.746Z,502.3846
2023-04-11T09:30:09.397Z,504.0000
2023-04-11T09:31:11.423Z,503.0000
2023-04-11T09:32:13.403Z,502.3846
2023-04-11T09:33:14.359Z,503.6154
2023-04-11T09:34:16.414Z,505.6154
2023-04-11T09:35:18.236Z,501.0769
2023-04-11T09:36:19.330Z,496.3846
2023-04-11T09:37:21.050Z,492.6923
2023-04-11T09:38:22.825Z,486.3077
2023-04-11T09:39:24.296Z,483.8462
2023-04-11T09:40:25.905Z,491.4615
2023-04-11T09:41:27.813Z,488.6154
2023-04-11T09:42:29.311Z,495.3077
2023-04-11T09:43:30.922Z,498.4615
2023-04-11T09:44:32.701Z,499.7692
2023-04-11T09:45:44.212Z,500.4615
2023-04-11T09:46:35.809Z,498.5000
2023-04-11T09:47:37.498Z,498.0769
2023-04-11T09:48:46.502Z,504.6154
2023-04-11T09:49:40.837Z,503.1667
2023-04-11T09:50:42.448Z,502.1538
2023-04-11T09:51:44.025Z,499.4615
2023-04-11T09:52:45.689Z,498.2308
2023-04-11T09:53:47.397Z,497.0000
2023-04-11T09:54:48.980Z,501.6154
2023-04-11T09:55:50.662Z,498.3077
2023-04-11T09:56:52.348Z,495.7692
2023-04-11T09:57:54.918Z,490.0000
2023-04-11T09:58:55.872Z,479.0769
2023-04-11T09:59:58.789Z,479.0000
2023-04-11T10:00:58.814Z,472.9231
2023-04-11T10:02:00.625Z,473.9231
2023-04-11T10:03:02.613Z,484.3846
2023-04-11T10:04:04.589Z,488.6154
2023-04-11T10:05:05.609Z,491.2308
2023-04-11T10:06:07.215Z,501.3077
2023-04-11T10:07:08.842Z,503.8462
2023-04-11T10:08:10.515Z,504.9231
2023-04-11T10:09:12.182Z,509.6923
2023-04-11T10:10:13.783Z,508.2308
2023-04-11T10:11:15.438Z,504.7692
2023-04-11T10:12:17.149Z,502.6154
2023-04-11T10:13:18.840Z,502.4615
2023-04-11T10:14:20.532Z,503.1538
2023-04-11T10:15:21.981Z,501.4615
2023-04-11T10:16:23.821Z,497.1538
2023-04-11T10:17:25.411Z,492.4615
2023-04-11T10:18:27.004Z,487.7692
2023-04-11T10:19:28.686Z,488.7692
2023-04-11T10:20:30.319Z,484.7692
2023-04-11T10:21:32.026Z,483.5385
2023-04-11T10:22:33.576Z,474.6923
2023-04-11T10:23:35.272Z,476.9231
2023-04-11T10:24:36.972Z,479.6154
2023-04-11T10:25:38.559Z,480.4615
2023-04-11T10:26:40.173Z,487.9231
2023-04-11T10:27:41.841Z,486.4615
2023-04-11T10:28:43.726Z,490.4615
2023-04-11T10:29:45.282Z,493.2308
2023-04-11T10:30:46.866Z,494.0769
2023-04-11T10:31:48.634Z,492.0769
2023-04-11T10:32:50.191Z,491.0769
2023-04-11T10:33:51.989Z,492.5385
2023-04-11T10:34:53.556Z,493.2308
2023-04-11T10:35:55.171Z,494.9231
2023-04-11T10:36:56.764Z,495.0000
2023-04-11T10:37:58.990Z,494.9231
2023-04-11T10:39:00.090Z,488.6923
2023-04-11T10:40:01.816Z,488.9231
2023-04-11T10:41:03.470Z,485.0769
2023-04-11T10:42:05.032Z,482.6154
2023-04-11T10:43:07.499Z,473.1538
2023-04-11T10:44:08.362Z,469.5385
2023-04-11T10:45:10.144Z,478.5385
2023-04-11T10:46:11.590Z,478.1538
2023-04-11T10:47:13.593Z,483.3846
2023-04-11T10:48:14.911Z,482.3077
2023-04-11T10:49:16.578Z,490.6154
2023-04-11T10:50:18.655Z,493.6923
2023-04-11T10:51:19.891Z,494.1538
2023-04-11T10:52:21.570Z,497.0000
2023-04-11T10:53:23.217Z,496.4615
2023-04-11T10:54:24.883Z,497.0769
2023-04-11T10:55:27.086Z,498.0769
2023-04-11T10:56:28.184Z,495.5385
2023-04-11T10:57:29.841Z,493.0000
2023-04-11T10:58:31.475Z,494.3846
2023-04-11T10:59:33.097Z,493.7692
2023-04-11T11:00:35.198Z,492.5385
2023-04-11T11:01:42.966Z,489.8462
2023-04-11T11:02:38.425Z,488.9167
2023-04-11T11:03:39.926Z,487.6923
2023-04-11T11:04:41.417Z,485.3846
2023-04-11T11:05:42.997Z,478.0000
2023-04-11T11:06:51.103Z,478.7692
2023-04-11T11:07:46.251Z,476.7500
2023-04-11T11:08:48.397Z,481.0769
2023-04-11T11:09:49.514Z,485.0000
2023-04-11T11:10:51.274Z,493.1538
2023-04-11T11:11:52.818Z,500.2308
2023-04-11T11:12:54.549Z,498.2308
2023-04-11T11:13:56.490Z,496.9231
2023-04-11T11:14:57.814Z,496.0000
2023-04-11T11:15:59.418Z,497.1538
2023-04-11T11:17:01.222Z,492.6154
2023-04-11T11:18:02.756Z,491.2308
2023-04-11T11:19:04.872Z,492.1538
2023-04-11T11:20:06.039Z,496.9231
2023-04-11T11:21:14.170Z,498.6923
2023-04-11T11:22:09.307Z,496.1667
2023-04-11T11:23:14.125Z,490.6923
2023-04-11T11:24:17.585Z,489.5000
2023-04-11T11:25:19.189Z,487.8462
2023-04-11T11:26:20.806Z,482.8462
2023-04-11T11:27:22.413Z,468.7692
2023-04-11T11:28:24.169Z,468.0000
2023-04-11T11:29:25.798Z,479.7692
2023-04-11T11:30:27.357Z,484.5385
2023-04-11T11:31:30.033Z,488.6923
2023-04-11T11:32:30.641Z,490.9231
2023-04-11T11:33:32.396Z,489.5385
2023-04-11T11:34:34.056Z,487.0000
2023-04-11T11:35:35.688Z,490.2308
2023-04-11T11:36:37.249Z,492.0000
2023-04-11T11:37:38.896Z,492.8462
2023-04-11T11:38:41.390Z,492.5385
2023-04-11T11:39:42.238Z,488.9231
2023-04-11T11:40:43.807Z,488.7692
2023-04-11T11:41:46.560Z,497.5385
2023-04-11T11:42:47.140Z,495.2308
2023-04-11T11:43:48.736Z,492.6154
2023-04-11T11:44:50.550Z,491.0769
2023-04-11T11:45:52.138Z,486.3077
2023-04-11T11:46:53.742Z,475.9231
2023-04-11T11:47:55.886Z,463.4615
2023-04-11T11:48:57.288Z,469.4615
2023-04-11T11:49:58.668Z,472.6154
2023-04-11T11:51:01.008Z,480.3077
2023-04-11T11:52:02.099Z,486.3846
2023-04-11T11:53:03.702Z,488.8462
2023-04-11T11:54:05.351Z,492.0769
2023-04-11T11:55:10.860Z,495.4615
2023-04-11T11:56:08.713Z,493.3333
2023-04-11T11:57:10.680Z,493.4615
2023-04-11T11:58:12.153Z,494.0769
2023-04-11T11:59:13.672Z,491.4615
2023-04-11T12:00:15.290Z,490.5385
2023-04-11T12:01:17.196Z,488.0769
2023-04-11T12:02:18.691Z,488.7692
2023-04-11T12:03:20.608Z,490.5385
2023-04-11T12:04:22.189Z,490.3846